sensor_id;sensor_type;location;lat;lon;timestamp;pressure;altitude;pressure_sealevel;temperature;humidity
53011;BME280;42803;55.762;38.084;2023-05-23T00:01:30;99942.88;;;10.92;100.00
53011;BME280;42803;55.762;38.084;2023-05-23T00:03:59;99947.47;;;10.85;100.00
53011;BME280;42803;55.762;38.084;2023-05-23T00:06:28;99948.38;;;10.85;100.00
53011;BME280;42803;55.762;38.084;2023-05-23T00:08:59;99946.41;;;10.83;100.00
53011;BME280;42803;55.762;38.084;2023-05-23T00:11:28;99945.22;;;10.89;100.00
53011;BME280;42803;55.762;38.084;2023-05-23T00:13:57;99950.72;;;10.82;100.00
53011;BME280;42803;55.762;38.084;2023-05-23T00:16:28;99959.75;;;10.76;100.00
53011;BME280;42803;55.762;38.084;2023-05-23T00:18:57;99943.31;;;10.66;100.00
53011;BME280;42803;55.762;38.084;2023-05-23T00:21:26;99942.16;;;10.63;100.00
53011;BME280;42803;55.762;38.084;2023-05-23T00:23:58;99946.34;;;10.51;100.00
53011;BME280;42803;55.762;38.084;2023-05-23T00:26:29;99952.63;;;10.42;100.00
53011;BME280;42803;55.762;38.084;2023-05-23T00:28:58;99955.06;;;10.41;100.00
53011;BME280;42803;55.762;38.084;2023-05-23T00:31:27;99943.47;;;10.37;100.00
53011;BME280;42803;55.762;38.084;2023-05-23T00:33:56;99948.69;;;10.37;100.00
53011;BME280;42803;55.762;38.084;2023-05-23T00:36:25;99949.22;;;10.33;100.00
53011;BME280;42803;55.762;38.084;2023-05-23T00:38:54;99950.53;;;10.38;100.00
53011;BME280;42803;55.762;38.084;2023-05-23T00:41:25;99957.84;;;10.42;100.00
53011;BME280;42803;55.762;38.084;2023-05-23T00:43:57;99949.22;;;10.43;100.00
53011;BME280;42803;55.762;38.084;2023-05-23T00:46:27;99952.88;;;10.45;100.00
53011;BME280;42803;55.762;38.084;2023-05-23T00:48:57;99940.97;;;10.49;100.00
53011;BME280;42803;55.762;38.084;2023-05-23T00:51:26;99942.94;;;10.52;100.00
53011;BME280;42803;55.762;38.084;2023-05-23T00:53:55;99946.59;;;10.54;100.00
53011;BME280;42803;55.762;38.084;2023-05-23T00:56:27;99937.72;;;10.52;100.00
53011;BME280;42803;55.762;38.084;2023-05-23T00:58:58;99942.94;;;10.52;100.00
53011;BME280;42803;55.762;38.084;2023-05-23T01:01:28;99945.81;;;10.55;100.00
53011;BME280;42803;55.762;38.084;2023-05-23T01:03:57;99937.97;;;10.55;100.00
53011;BME280;42803;55.762;38.084;2023-05-23T01:06:26;99937.72;;;10.52;100.00
53011;BME280;42803;55.762;38.084;2023-05-23T01:08:57;99938.38;;;10.49;100.00
53011;BME280;42803;55.762;38.084;2023-05-23T01:11:35;99942.16;;;10.53;100.00
53011;BME280;42803;55.762;38.084;2023-05-23T01:14:10;99945.69;;;10.53;100.00
53011;BME280;42803;55.762;38.084;2023-05-23T01:16:45;99942.69;;;10.48;100.00
53011;BME280;42803;55.762;38.084;2023-05-23T01:19:42;99934.63;;;10.45;100.00
53011;BME280;42803;55.762;38.084;2023-05-23T01:22:22;99930.16;;;10.44;100.00
53011;BME280;42803;55.762;38.084;2023-05-23T01:25:01;99928.34;;;10.43;100.00
53011;BME280;42803;55.762;38.084;2023-05-23T01:27:45;99942.56;;;10.47;100.00
53011;BME280;42803;55.762;38.084;2023-05-23T01:30:18;99937.97;;;10.44;100.00
53011;BME280;42803;55.762;38.084;2023-05-23T01:32:50;99934.34;;;10.42;100.00
53011;BME280;42803;55.762;38.084;2023-05-23T01:35:24;99939.56;;;10.42;100.00
53011;BME280;42803;55.762;38.084;2023-05-23T01:37:55;99922.84;;;10.40;100.00
53011;BME280;42803;55.762;38.084;2023-05-23T01:40:24;99938.50;;;10.40;100.00
53011;BME280;42803;55.762;38.084;2023-05-23T01:42:55;99938.25;;;10.47;100.00
53011;BME280;42803;55.762;38.084;2023-05-23T01:45:25;99933.81;;;10.46;100.00
53011;BME280;42803;55.762;38.084;2023-05-23T01:47:56;99930.16;;;10.55;100.00
53011;BME280;42803;55.762;38.084;2023-05-23T01:50:27;99935.13;;;10.52;100.00
53011;BME280;42803;55.762;38.084;2023-05-23T01:52:56;99940.84;;;10.47;100.00
53011;BME280;42803;55.762;38.084;2023-05-23T01:55:26;99939.81;;;10.56;100.00
53011;BME280;42803;55.762;38.084;2023-05-23T01:57:57;99924.13;;;10.66;100.00
53011;BME280;42803;55.762;38.084;2023-05-23T02:00:27;99928.28;;;10.74;100.00
53011;BME280;42803;55.762;38.084;2023-05-23T02:02:57;99928.94;;;10.82;100.00
53011;BME280;42803;55.762;38.084;2023-05-23T02:05:26;99921.06;;;10.92;100.00
53011;BME280;42803;55.762;38.084;2023-05-23T02:07:55;99927.69;;;10.98;100.00
53011;BME280;42803;55.762;38.084;2023-05-23T02:10:24;99920.91;;;11.01;100.00
53011;BME280;42803;55.762;38.084;2023-05-23T02:12:53;99929.75;;;11.03;100.00
53011;BME280;42803;55.762;38.084;2023-05-23T02:15:24;99930.03;;;11.06;100.00
53011;BME280;42803;55.762;38.084;2023-05-23T02:17:53;99930.28;;;11.09;100.00
53011;BME280;42803;55.762;38.084;2023-05-23T02:20:23;99928.72;;;11.11;100.00
53011;BME280;42803;55.762;38.084;2023-05-23T02:22:52;99931.44;;;11.12;100.00
53011;BME280;42803;55.762;38.084;2023-05-23T02:25:21;99926.72;;;11.18;100.00
53011;BME280;42803;55.762;38.084;2023-05-23T02:27:50;99935.03;;;11.25;100.00
53011;BME280;42803;55.762;38.084;2023-05-23T02:30:19;99927.28;;;11.36;100.00
53011;BME280;42803;55.762;38.084;2023-05-23T02:32:50;99928.28;;;11.49;100.00
53011;BME280;42803;55.762;38.084;2023-05-23T02:35:20;99925.84;;;11.62;100.00
53011;BME280;42803;55.762;38.084;2023-05-23T02:37:49;99928.63;;;11.75;100.00
53011;BME280;42803;55.762;38.084;2023-05-23T02:40:18;99929.66;;;11.87;100.00
53011;BME280;42803;55.762;38.084;2023-05-23T02:42:47;99929.00;;;12.02;100.00
53011;BME280;42803;55.762;38.084;2023-05-23T02:45:18;99925.78;;;12.16;100.00
53011;BME280;42803;55.762;38.084;2023-05-23T02:47:47;99924.78;;;12.26;100.00
53011;BME280;42803;55.762;38.084;2023-05-23T02:50:18;99930.06;;;12.37;100.00
53011;BME280;42803;55.762;38.084;2023-05-23T02:52:47;99937.94;;;12.49;100.00
53011;BME280;42803;55.762;38.084;2023-05-23T02:55:16;99921.09;;;12.57;100.00
53011;BME280;42803;55.762;38.084;2023-05-23T02:57:48;99932.94;;;12.64;100.00
53011;BME280;42803;55.762;38.084;2023-05-23T03:00:18;99930.59;;;12.79;100.00
53011;BME280;42803;55.762;38.084;2023-05-23T03:02:51;99937.53;;;12.90;100.00
53011;BME280;42803;55.762;38.084;2023-05-23T03:05:22;99930.81;;;12.93;100.00
53011;BME280;42803;55.762;38.084;2023-05-23T03:07:51;99924.19;;;12.99;100.00
53011;BME280;42803;55.762;38.084;2023-05-23T03:10:21;99929.66;;;13.13;100.00
53011;BME280;42803;55.762;38.084;2023-05-23T03:12:50;99922.38;;;13.21;100.00
53011;BME280;42803;55.762;38.084;2023-05-23T03:15:19;99923.88;;;13.29;100.00
53011;BME280;42803;55.762;38.084;2023-05-23T03:17:48;99911.41;;;13.38;100.00
53011;BME280;42803;55.762;38.084;2023-05-23T03:20:18;99918.47;;;13.51;100.00
53011;BME280;42803;55.762;38.084;2023-05-23T03:22:48;99918.78;;;13.56;100.00
53011;BME280;42803;55.762;38.084;2023-05-23T03:25:17;99911.16;;;13.59;100.00
53011;BME280;42803;55.762;38.084;2023-05-23T03:27:47;99913.88;;;13.60;100.00
53011;BME280;42803;55.762;38.084;2023-05-23T03:30:16;99916.16;;;13.56;100.00
53011;BME280;42803;55.762;38.084;2023-05-23T03:32:45;99915.72;;;13.50;100.00
53011;BME280;42803;55.762;38.084;2023-05-23T03:35:15;99917.09;;;13.45;100.00
53011;BME280;42803;55.762;38.084;2023-05-23T03:37:44;99913.13;;;13.38;100.00
53011;BME280;42803;55.762;38.084;2023-05-23T03:43:20;99911.31;;;13.37;100.00
53011;BME280;42803;55.762;38.084;2023-05-23T03:45:49;99910.97;;;13.44;100.00
53011;BME280;42803;55.762;38.084;2023-05-23T03:48:18;99912.97;;;13.60;100.00
53011;BME280;42803;55.762;38.084;2023-05-23T03:50:49;99904.03;;;13.70;100.00
53011;BME280;42803;55.762;38.084;2023-05-23T03:53:18;99907.41;;;13.80;100.00
53011;BME280;42803;55.762;38.084;2023-05-23T03:58:36;99911.28;;;13.85;100.00
53011;BME280;42803;55.762;38.084;2023-05-23T04:01:12;99897.78;;;13.93;100.00
53011;BME280;42803;55.762;38.084;2023-05-23T04:03:41;99897.22;;;13.97;100.00
53011;BME280;42803;55.762;38.084;2023-05-23T04:06:11;99901.06;;;14.02;100.00
53011;BME280;42803;55.762;38.084;2023-05-23T04:11:38;99912.72;;;14.19;100.00
53011;BME280;42803;55.762;38.084;2023-05-23T04:14:08;99913.06;;;14.23;100.00
53011;BME280;42803;55.762;38.084;2023-05-23T04:16:37;99916.09;;;14.29;100.00
53011;BME280;42803;55.762;38.084;2023-05-23T04:19:09;99923.81;;;14.39;100.00
53011;BME280;42803;55.762;38.084;2023-05-23T04:21:57;99923.22;;;14.44;100.00
53011;BME280;42803;55.762;38.084;2023-05-23T04:24:26;99929.97;;;14.40;100.00
53011;BME280;42803;55.762;38.084;2023-05-23T04:26:57;99925.53;;;14.39;100.00
53011;BME280;42803;55.762;38.084;2023-05-23T04:29:26;99931.44;;;14.23;100.00
53011;BME280;42803;55.762;38.084;2023-05-23T04:31:59;99941.72;;;14.20;100.00
53011;BME280;42803;55.762;38.084;2023-05-23T04:34:28;99935.75;;;14.23;100.00
53011;BME280;42803;55.762;38.084;2023-05-23T04:39:53;99932.50;;;14.38;100.00
53011;BME280;42803;55.762;38.084;2023-05-23T04:43:01;99939.63;;;14.53;100.00
53011;BME280;42803;55.762;38.084;2023-05-23T04:45:37;99941.47;;;14.54;100.00
53011;BME280;42803;55.762;38.084;2023-05-23T04:51:15;99944.88;;;14.53;100.00
53011;BME280;42803;55.762;38.084;2023-05-23T04:53:52;99944.25;;;14.57;100.00
53011;BME280;42803;55.762;38.084;2023-05-23T04:56:21;99946.13;;;14.58;100.00
53011;BME280;42803;55.762;38.084;2023-05-23T04:58:56;99942.41;;;14.81;100.00
53011;BME280;42803;55.762;38.084;2023-05-23T05:01:27;99943.56;;;15.11;100.00
53011;BME280;42803;55.762;38.084;2023-05-23T05:03:56;99949.81;;;15.26;99.19
53011;BME280;42803;55.762;38.084;2023-05-23T05:06:25;99945.44;;;15.40;96.79
53011;BME280;42803;55.762;38.084;2023-05-23T05:08:55;99955.63;;;15.75;96.45
53011;BME280;42803;55.762;38.084;2023-05-23T05:11:24;99962.72;;;15.76;94.42
53011;BME280;42803;55.762;38.084;2023-05-23T05:13:54;99947.03;;;15.78;94.04
53011;BME280;42803;55.762;38.084;2023-05-23T05:16:26;99945.09;;;15.75;93.85
53011;BME280;42803;55.762;38.084;2023-05-23T05:18:55;99951.81;;;15.57;93.26
53011;BME280;42803;55.762;38.084;2023-05-23T05:21:24;99956.56;;;15.49;95.43
53011;BME280;42803;55.762;38.084;2023-05-23T05:23:54;99953.44;;;15.42;97.66
53011;BME280;42803;55.762;38.084;2023-05-23T05:26:23;99960.31;;;15.40;97.00
53011;BME280;42803;55.762;38.084;2023-05-23T05:28:54;99956.16;;;15.30;99.42
53011;BME280;42803;55.762;38.084;2023-05-23T05:31:23;99960.53;;;15.16;97.07
53011;BME280;42803;55.762;38.084;2023-05-23T05:33:54;99953.47;;;15.15;97.30
53011;BME280;42803;55.762;38.084;2023-05-23T05:36:24;99943.31;;;15.21;98.38
53011;BME280;42803;55.762;38.084;2023-05-23T05:38:54;99950.22;;;15.19;98.97
53011;BME280;42803;55.762;38.084;2023-05-23T05:41:23;99947.88;;;15.24;100.00
53011;BME280;42803;55.762;38.084;2023-05-23T05:43:53;99938.69;;;15.30;100.00
53011;BME280;42803;55.762;38.084;2023-05-23T05:46:23;99934.34;;;15.31;98.27
53011;BME280;42803;55.762;38.084;2023-05-23T05:48:54;99940.66;;;15.48;98.25
53011;BME280;42803;55.762;38.084;2023-05-23T05:51:24;99942.28;;;15.72;98.56
53011;BME280;42803;55.762;38.084;2023-05-23T05:53:53;99929.16;;;15.87;97.04
53011;BME280;42803;55.762;38.084;2023-05-23T05:56:22;99924.00;;;15.89;95.35
53011;BME280;42803;55.762;38.084;2023-05-23T05:58:53;99923.53;;;16.09;94.91
53011;BME280;42803;55.762;38.084;2023-05-23T06:01:23;99929.06;;;16.42;94.04
53011;BME280;42803;55.762;38.084;2023-05-23T06:03:54;99925.09;;;16.78;92.16
53011;BME280;42803;55.762;38.084;2023-05-23T06:06:25;99920.97;;;16.98;91.13
53011;BME280;42803;55.762;38.084;2023-05-23T06:08:54;99915.53;;;17.10;90.46
53011;BME280;42803;55.762;38.084;2023-05-23T06:11:23;99913.66;;;17.23;88.88
53011;BME280;42803;55.762;38.084;2023-05-23T06:13:53;99908.53;;;17.41;87.31
53011;BME280;42803;55.762;38.084;2023-05-23T06:16:23;99906.84;;;17.58;88.11
53011;BME280;42803;55.762;38.084;2023-05-23T06:18:54;99907.22;;;17.49;88.20
53011;BME280;42803;55.762;38.084;2023-05-23T06:21:27;99908.50;;;17.72;87.09
53011;BME280;42803;55.762;38.084;2023-05-23T06:23:56;99904.75;;;17.84;85.63
53011;BME280;42803;55.762;38.084;2023-05-23T06:26:25;99903.63;;;17.95;86.67
53011;BME280;42803;55.762;38.084;2023-05-23T06:28:54;99896.91;;;17.85;89.78
53011;BME280;42803;55.762;38.084;2023-05-23T06:31:23;99893.06;;;17.78;87.45
53011;BME280;42803;55.762;38.084;2023-05-23T06:33:54;99889.53;;;17.63;90.27
53011;BME280;42803;55.762;38.084;2023-05-23T06:36:23;99879.31;;;17.86;91.12
53011;BME280;42803;55.762;38.084;2023-05-23T06:38:54;99876.63;;;18.17;91.04
53011;BME280;42803;55.762;38.084;2023-05-23T06:41:23;99860.41;;;18.27;83.86
53011;BME280;42803;55.762;38.084;2023-05-23T06:43:54;99847.69;;;18.70;87.82
53011;BME280;42803;55.762;38.084;2023-05-23T06:46:25;99857.44;;;18.71;82.46
53011;BME280;42803;55.762;38.084;2023-05-23T06:48:56;99866.66;;;18.80;83.70
53011;BME280;42803;55.762;38.084;2023-05-23T06:51:42;99872.47;;;18.90;80.64
53011;BME280;42803;55.762;38.084;2023-05-23T06:54:12;99870.69;;;19.44;81.31
53011;BME280;42803;55.762;38.084;2023-05-23T06:56:42;99865.78;;;19.34;84.43
53011;BME280;42803;55.762;38.084;2023-05-23T06:59:11;99869.25;;;19.69;79.30
53011;BME280;42803;55.762;38.084;2023-05-23T07:01:40;99874.28;;;19.82;84.67
53011;BME280;42803;55.762;38.084;2023-05-23T07:04:11;99870.94;;;20.06;78.50
53011;BME280;42803;55.762;38.084;2023-05-23T07:06:41;99880.97;;;19.74;77.71
53011;BME280;42803;55.762;38.084;2023-05-23T07:09:10;99862.84;;;19.83;77.64
53011;BME280;42803;55.762;38.084;2023-05-23T07:11:40;99863.31;;;19.75;81.33
53011;BME280;42803;55.762;38.084;2023-05-23T07:14:14;99863.47;;;19.97;77.84
53011;BME280;42803;55.762;38.084;2023-05-23T07:16:45;99876.88;;;20.00;81.11
53011;BME280;42803;55.762;38.084;2023-05-23T07:19:17;99862.47;;;20.14;81.13
53011;BME280;42803;55.762;38.084;2023-05-23T07:21:49;99859.53;;;20.68;78.55
53011;BME280;42803;55.762;38.084;2023-05-23T07:24:19;99856.09;;;21.12;76.58
53011;BME280;42803;55.762;38.084;2023-05-23T07:26:51;99869.63;;;21.18;74.76
53011;BME280;42803;55.762;38.084;2023-05-23T07:29:20;99867.19;;;20.81;75.28
53011;BME280;42803;55.762;38.084;2023-05-23T07:31:52;99881.50;;;20.85;76.04
53011;BME280;42803;55.762;38.084;2023-05-23T07:34:24;99891.50;;;20.50;78.67
53011;BME280;42803;55.762;38.084;2023-05-23T07:36:58;99894.13;;;19.72;82.48
53011;BME280;42803;55.762;38.084;2023-05-23T07:39:33;99893.31;;;19.74;80.71
53011;BME280;42803;55.762;38.084;2023-05-23T07:42:04;99895.53;;;20.03;80.65
53011;BME280;42803;55.762;38.084;2023-05-23T07:44:33;99893.72;;;19.83;79.39
53011;BME280;42803;55.762;38.084;2023-05-23T07:47:03;99881.63;;;20.07;79.87
53011;BME280;42803;55.762;38.084;2023-05-23T07:49:34;99882.44;;;20.06;80.95
53011;BME280;42803;55.762;38.084;2023-05-23T07:52:04;99883.41;;;20.28;79.11
53011;BME280;42803;55.762;38.084;2023-05-23T07:54:35;99892.31;;;20.30;78.06
53011;BME280;42803;55.762;38.084;2023-05-23T07:57:05;99897.06;;;19.79;80.06
53011;BME280;42803;55.762;38.084;2023-05-23T07:59:35;99896.38;;;19.28;81.55
53011;BME280;42803;55.762;38.084;2023-05-23T08:02:05;99902.03;;;18.65;86.50
53011;BME280;42803;55.762;38.084;2023-05-23T08:04:36;99900.78;;;18.41;87.67
53011;BME280;42803;55.762;38.084;2023-05-23T08:07:07;99908.22;;;18.15;91.38
53011;BME280;42803;55.762;38.084;2023-05-23T08:09:49;99905.38;;;17.63;92.98
53011;BME280;42803;55.762;38.084;2023-05-23T08:12:19;99908.56;;;17.26;95.47
53011;BME280;42803;55.762;38.084;2023-05-23T08:14:57;99914.25;;;17.03;98.94
53011;BME280;42803;55.762;38.084;2023-05-23T08:17:35;99911.19;;;16.80;100.00
53011;BME280;42803;55.762;38.084;2023-05-23T08:20:07;99909.53;;;16.68;100.00
53011;BME280;42803;55.762;38.084;2023-05-23T08:22:38;99910.25;;;16.50;100.00
53011;BME280;42803;55.762;38.084;2023-05-23T08:25:09;99908.44;;;16.49;100.00
53011;BME280;42803;55.762;38.084;2023-05-23T08:27:40;99900.78;;;16.54;100.00
53011;BME280;42803;55.762;38.084;2023-05-23T08:30:28;99902.25;;;16.49;100.00
53011;BME280;42803;55.762;38.084;2023-05-23T08:32:58;99898.53;;;16.45;100.00
53011;BME280;42803;55.762;38.084;2023-05-23T08:35:33;99907.44;;;16.62;100.00
53011;BME280;42803;55.762;38.084;2023-05-23T08:38:08;99889.53;;;16.71;100.00
53011;BME280;42803;55.762;38.084;2023-05-23T08:40:49;99882.16;;;16.51;100.00
53011;BME280;42803;55.762;38.084;2023-05-23T08:43:20;99887.25;;;16.48;100.00
53011;BME280;42803;55.762;38.084;2023-05-23T08:45:50;99895.00;;;16.45;100.00
53011;BME280;42803;55.762;38.084;2023-05-23T08:48:21;99895.06;;;16.46;100.00
53011;BME280;42803;55.762;38.084;2023-05-23T08:50:54;99895.34;;;16.51;100.00
53011;BME280;42803;55.762;38.084;2023-05-23T08:53:24;99894.69;;;16.70;100.00
53011;BME280;42803;55.762;38.084;2023-05-23T08:56:02;99894.28;;;16.92;100.00
53011;BME280;42803;55.762;38.084;2023-05-23T08:58:41;99893.34;;;17.06;100.00
53011;BME280;42803;55.762;38.084;2023-05-23T09:01:12;99885.00;;;17.29;100.00
53011;BME280;42803;55.762;38.084;2023-05-23T09:03:41;99889.78;;;17.51;100.00
53011;BME280;42803;55.762;38.084;2023-05-23T09:06:22;99886.38;;;17.70;100.00
53011;BME280;42803;55.762;38.084;2023-05-23T09:08:53;99894.38;;;17.87;100.00
53011;BME280;42803;55.762;38.084;2023-05-23T09:11:24;99885.69;;;17.89;100.00
53011;BME280;42803;55.762;38.084;2023-05-23T09:13:55;99895.63;;;17.62;100.00
53011;BME280;42803;55.762;38.084;2023-05-23T09:16:31;99889.97;;;17.40;100.00
53011;BME280;42803;55.762;38.084;2023-05-23T09:19:13;99897.00;;;17.24;100.00
53011;BME280;42803;55.762;38.084;2023-05-23T09:21:52;99900.44;;;17.07;100.00
53011;BME280;42803;55.762;38.084;2023-05-23T09:24:33;99906.91;;;16.83;100.00
53011;BME280;42803;55.762;38.084;2023-05-23T09:27:06;99903.72;;;16.88;100.00
53011;BME280;42803;55.762;38.084;2023-05-23T09:29:36;99906.22;;;17.16;100.00
53011;BME280;42803;55.762;38.084;2023-05-23T09:32:11;99914.72;;;17.42;100.00
53011;BME280;42803;55.762;38.084;2023-05-23T09:34:41;99914.75;;;17.27;100.00
53011;BME280;42803;55.762;38.084;2023-05-23T09:37:12;99920.47;;;16.89;100.00
53011;BME280;42803;55.762;38.084;2023-05-23T09:39:46;99919.88;;;16.50;100.00
53011;BME280;42803;55.762;38.084;2023-05-23T09:42:20;99920.56;;;16.32;100.00
53011;BME280;42803;55.762;38.084;2023-05-23T09:44:50;99924.97;;;16.47;100.00
53011;BME280;42803;55.762;38.084;2023-05-23T09:47:19;99924.25;;;16.64;100.00
53011;BME280;42803;55.762;38.084;2023-05-23T09:49:49;99925.00;;;16.76;100.00
53011;BME280;42803;55.762;38.084;2023-05-23T09:52:22;99927.19;;;16.84;100.00
53011;BME280;42803;55.762;38.084;2023-05-23T09:54:51;99928.47;;;16.75;100.00
53011;BME280;42803;55.762;38.084;2023-05-23T09:57:21;99919.88;;;16.50;100.00
53011;BME280;42803;55.762;38.084;2023-05-23T09:59:53;99920.59;;;16.47;100.00
53011;BME280;42803;55.762;38.084;2023-05-23T10:02:50;99930.50;;;16.66;100.00
53011;BME280;42803;55.762;38.084;2023-05-23T10:05:30;99926.38;;;16.85;100.00
53011;BME280;42803;55.762;38.084;2023-05-23T10:08:07;99918.72;;;16.89;100.00
53011;BME280;42803;55.762;38.084;2023-05-23T10:13:49;99907.34;;;17.05;100.00
53011;BME280;42803;55.762;38.084;2023-05-23T10:16:27;99905.72;;;17.07;100.00
53011;BME280;42803;55.762;38.084;2023-05-23T10:19:06;99907.69;;;17.11;100.00
53011;BME280;42803;55.762;38.084;2023-05-23T10:21:42;99909.00;;;17.03;100.00
53011;BME280;42803;55.762;38.084;2023-05-23T10:24:14;99916.16;;;17.05;100.00
53011;BME280;42803;55.762;38.084;2023-05-23T10:26:44;99916.91;;;17.03;100.00
53011;BME280;42803;55.762;38.084;2023-05-23T10:29:13;99919.34;;;17.00;100.00
53011;BME280;42803;55.762;38.084;2023-05-23T10:31:43;99923.00;;;17.02;100.00
53011;BME280;42803;55.762;38.084;2023-05-23T10:34:16;99916.44;;;17.10;100.00
53011;BME280;42803;55.762;38.084;2023-05-23T10:36:59;99921.41;;;17.20;100.00
53011;BME280;42803;55.762;38.084;2023-05-23T10:39:56;99915.97;;;17.17;100.00
53011;BME280;42803;55.762;38.084;2023-05-23T10:42:34;99918.44;;;17.14;100.00
53011;BME280;42803;55.762;38.084;2023-05-23T10:48:18;99908.25;;;17.51;100.00
53011;BME280;42803;55.762;38.084;2023-05-23T10:51:04;99905.25;;;17.93;100.00
53011;BME280;42803;55.762;38.084;2023-05-23T10:53:35;99910.72;;;18.29;100.00
53011;BME280;42803;55.762;38.084;2023-05-23T10:56:06;99911.44;;;18.77;100.00
53011;BME280;42803;55.762;38.084;2023-05-23T10:58:38;99916.09;;;18.98;100.00
53011;BME280;42803;55.762;38.084;2023-05-23T11:01:08;99916.66;;;19.27;100.00
53011;BME280;42803;55.762;38.084;2023-05-23T11:03:49;99911.84;;;19.56;100.00
53011;BME280;42803;55.762;38.084;2023-05-23T11:06:30;99904.16;;;19.80;100.00
53011;BME280;42803;55.762;38.084;2023-05-23T11:12:02;99902.94;;;20.10;97.78
53011;BME280;42803;55.762;38.084;2023-05-23T11:14:50;99904.81;;;20.32;97.78
53011;BME280;42803;55.762;38.084;2023-05-23T11:17:31;99899.31;;;20.08;97.72
53011;BME280;42803;55.762;38.084;2023-05-23T11:20:05;99898.63;;;20.12;95.65
53011;BME280;42803;55.762;38.084;2023-05-23T11:22:35;99885.22;;;20.29;96.43
53011;BME280;42803;55.762;38.084;2023-05-23T11:25:07;99888.16;;;20.54;95.46
53011;BME280;42803;55.762;38.084;2023-05-23T11:27:40;99888.22;;;20.77;91.49
53011;BME280;42803;55.762;38.084;2023-05-23T11:30:11;99880.25;;;21.18;89.61
53011;BME280;42803;55.762;38.084;2023-05-23T11:32:47;99883.13;;;21.46;87.16
53011;BME280;42803;55.762;38.084;2023-05-23T11:35:18;99882.22;;;21.68;85.64
53011;BME280;42803;55.762;38.084;2023-05-23T11:37:49;99881.00;;;21.82;86.73
53011;BME280;42803;55.762;38.084;2023-05-23T11:40:28;99873.88;;;22.05;83.75
53011;BME280;42803;55.762;38.084;2023-05-23T11:43:02;99867.19;;;22.14;81.31
53011;BME280;42803;55.762;38.084;2023-05-23T11:45:32;99868.81;;;22.11;80.92
53011;BME280;42803;55.762;38.084;2023-05-23T11:48:06;99858.53;;;22.20;77.90
53011;BME280;42803;55.762;38.084;2023-05-23T11:50:46;99861.69;;;22.34;75.76
53011;BME280;42803;55.762;38.084;2023-05-23T11:53:18;99858.03;;;22.08;75.27
53011;BME280;42803;55.762;38.084;2023-05-23T11:56:05;99855.69;;;21.92;76.18
53011;BME280;42803;55.762;38.084;2023-05-23T11:58:37;99859.00;;;21.63;75.90
53011;BME280;42803;55.762;38.084;2023-05-23T12:01:10;99853.75;;;21.87;76.44
53011;BME280;42803;55.762;38.084;2023-05-23T12:03:47;99859.34;;;22.18;76.83
53011;BME280;42803;55.762;38.084;2023-05-23T12:06:18;99853.47;;;22.28;74.90
53011;BME280;42803;55.762;38.084;2023-05-23T12:08:48;99850.06;;;22.32;72.64
53011;BME280;42803;55.762;38.084;2023-05-23T12:11:17;99842.47;;;22.43;71.82
53011;BME280;42803;55.762;38.084;2023-05-23T12:13:48;99849.47;;;22.15;72.43
53011;BME280;42803;55.762;38.084;2023-05-23T12:16:20;99846.78;;;22.39;74.12
53011;BME280;42803;55.762;38.084;2023-05-23T12:18:52;99844.59;;;22.51;72.14
53011;BME280;42803;55.762;38.084;2023-05-23T12:21:24;99844.13;;;22.65;70.68
53011;BME280;42803;55.762;38.084;2023-05-23T12:23:55;99849.41;;;22.63;69.89
53011;BME280;42803;55.762;38.084;2023-05-23T12:26:25;99847.59;;;22.62;71.34
53011;BME280;42803;55.762;38.084;2023-05-23T12:28:56;99842.72;;;22.49;71.33
53011;BME280;42803;55.762;38.084;2023-05-23T12:31:27;99837.66;;;22.56;73.54
53011;BME280;42803;55.762;38.084;2023-05-23T12:33:57;99833.50;;;22.39;70.27
53011;BME280;42803;55.762;38.084;2023-05-23T12:36:28;99837.56;;;22.05;71.82
53011;BME280;42803;55.762;38.084;2023-05-23T12:39:01;99833.72;;;21.97;73.98
53011;BME280;42803;55.762;38.084;2023-05-23T12:41:31;99829.53;;;22.04;74.14
53011;BME280;42803;55.762;38.084;2023-05-23T12:44:02;99825.69;;;21.96;75.88
53011;BME280;42803;55.762;38.084;2023-05-23T12:46:32;99822.44;;;21.79;78.53
53011;BME280;42803;55.762;38.084;2023-05-23T12:49:01;99818.09;;;21.82;85.93
53011;BME280;42803;55.762;38.084;2023-05-23T12:51:30;99814.84;;;21.89;86.30
53011;BME280;42803;55.762;38.084;2023-05-23T12:54:00;99809.34;;;21.85;84.48
53011;BME280;42803;55.762;38.084;2023-05-23T12:56:29;99809.06;;;21.77;92.87
53011;BME280;42803;55.762;38.084;2023-05-23T12:58:58;99806.09;;;21.68;87.91
53011;BME280;42803;55.762;38.084;2023-05-23T13:01:30;99806.53;;;21.56;92.71
53011;BME280;42803;55.762;38.084;2023-05-23T13:04:01;99808.97;;;21.98;80.16
53011;BME280;42803;55.762;38.084;2023-05-23T13:06:31;99808.56;;;22.11;77.95
53011;BME280;42803;55.762;38.084;2023-05-23T13:09:02;99803.41;;;22.40;76.02
53011;BME280;42803;55.762;38.084;2023-05-23T13:11:31;99808.16;;;22.50;76.34
53011;BME280;42803;55.762;38.084;2023-05-23T13:14:00;99799.44;;;22.54;85.01
53011;BME280;42803;55.762;38.084;2023-05-23T13:16:31;99801.25;;;22.30;81.62
53011;BME280;42803;55.762;38.084;2023-05-23T13:19:03;99797.78;;;22.58;84.35
53011;BME280;42803;55.762;38.084;2023-05-23T13:21:32;99800.00;;;22.44;76.98
53011;BME280;42803;55.762;38.084;2023-05-23T13:24:02;99792.09;;;22.47;81.21
53011;BME280;42803;55.762;38.084;2023-05-23T13:26:31;99791.50;;;22.29;87.10
53011;BME280;42803;55.762;38.084;2023-05-23T13:29:00;99794.19;;;22.30;82.72
53011;BME280;42803;55.762;38.084;2023-05-23T13:31:31;99795.25;;;22.35;80.53
53011;BME280;42803;55.762;38.084;2023-05-23T13:34:01;99790.94;;;22.39;76.09